sensor_id;sensor_type;location;lat;lon;timestamp;pressure;altitude;pressure_sealevel;temperature;humidity
64139;BME280;50435;43.700;-79.318;2023-02-19T00:02:04;101029.60;;;0.99;49.20
64139;BME280;50435;43.700;-79.318;2023-02-19T00:04:31;101030.66;;;0.93;49.28
64139;BME280;50435;43.700;-79.318;2023-02-19T00:06:59;101033.01;;;0.74;49.21
64139;BME280;50435;43.700;-79.318;2023-02-19T00:09:26;101031.81;;;0.69;49.33
64139;BME280;50435;43.700;-79.318;2023-02-19T00:11:54;101028.77;;;0.78;49.55
64139;BME280;50435;43.700;-79.318;2023-02-19T00:14:21;101032.74;;;0.73;49.53
64139;BME280;50435;43.700;-79.318;2023-02-19T00:16:49;101041.58;;;0.71;49.47
64139;BME280;50435;43.700;-79.318;2023-02-19T00:19:18;101044.07;;;0.70;49.62
64139;BME280;50435;43.700;-79.318;2023-02-19T00:21:46;101040.37;;;0.58;49.80
64139;BME280;50435;43.700;-79.318;2023-02-19T00:24:14;101042.89;;;0.51;49.98
64139;BME280;50435;43.700;-79.318;2023-02-19T00:26:42;101043.85;;;0.42;49.91
64139;BME280;50435;43.700;-79.318;2023-02-19T00:29:13;101047.12;;;0.46;50.05
64139;BME280;50435;43.700;-79.318;2023-02-19T00:31:41;101050.68;;;0.12;50.18
64139;BME280;50435;43.700;-79.318;2023-02-19T00:34:11;101049.71;;;0.35;50.16
64139;BME280;50435;43.700;-79.318;2023-02-19T00:36:40;101054.08;;;0.34;50.09
64139;BME280;50435;43.700;-79.318;2023-02-19T00:39:11;101057.61;;;0.27;50.31
64139;BME280;50435;43.700;-79.318;2023-02-19T00:41:38;101064.05;;;0.20;50.38
64139;BME280;50435;43.700;-79.318;2023-02-19T00:44:08;101063.91;;;0.54;50.36
64139;BME280;50435;43.700;-79.318;2023-02-19T00:46:38;101061.65;;;0.16;50.26
64139;BME280;50435;43.700;-79.318;2023-02-19T00:49:10;101061.82;;;0.03;50.68
64139;BME280;50435;43.700;-79.318;2023-02-19T00:51:40;101058.01;;;0.13;50.57
64139;BME280;50435;43.700;-79.318;2023-02-19T00:54:08;101055.52;;;0.15;50.31
64139;BME280;50435;43.700;-79.318;2023-02-19T00:56:36;101054.07;;;-0.09;50.75
64139;BME280;50435;43.700;-79.318;2023-02-19T00:59:04;101056.88;;;0.28;50.47
64139;BME280;50435;43.700;-79.318;2023-02-19T01:01:32;101055.70;;;-0.00;50.55
64139;BME280;50435;43.700;-79.318;2023-02-19T01:03:59;101053.69;;;-0.20;50.72
64139;BME280;50435;43.700;-79.318;2023-02-19T01:06:27;101046.05;;;-0.19;50.79
64139;BME280;50435;43.700;-79.318;2023-02-19T01:08:54;101046.33;;;0.16;50.49
64139;BME280;50435;43.700;-79.318;2023-02-19T01:11:22;101043.49;;;-0.25;50.72
64139;BME280;50435;43.700;-79.318;2023-02-19T01:13:49;101043.44;;;-0.13;50.53
64139;BME280;50435;43.700;-79.318;2023-02-19T01:16:19;101048.18;;;-0.15;50.75
64139;BME280;50435;43.700;-79.318;2023-02-19T01:18:47;101048.89;;;-0.30;50.88
64139;BME280;50435;43.700;-79.318;2023-02-19T01:21:17;101050.20;;;0.15;51.07
64139;BME280;50435;43.700;-79.318;2023-02-19T01:23:45;101054.92;;;-0.43;51.10
64139;BME280;50435;43.700;-79.318;2023-02-19T01:26:15;101057.21;;;-0.25;50.70
64139;BME280;50435;43.700;-79.318;2023-02-19T01:28:43;101058.17;;;-0.36;50.75
64139;BME280;50435;43.700;-79.318;2023-02-19T01:31:13;101063.10;;;-0.31;50.78
64139;BME280;50435;43.700;-79.318;2023-02-19T01:33:44;101060.88;;;-0.26;50.74
64139;BME280;50435;43.700;-79.318;2023-02-19T01:36:12;101065.76;;;-0.02;51.02
64139;BME280;50435;43.700;-79.318;2023-02-19T01:38:39;101066.40;;;-0.24;50.94
64139;BME280;50435;43.700;-79.318;2023-02-19T01:41:09;101068.05;;;-0.33;51.04
64139;BME280;50435;43.700;-79.318;2023-02-19T01:43:56;101066.45;;;-0.65;51.14
64139;BME280;50435;43.700;-79.318;2023-02-19T01:46:25;101065.26;;;-0.62;51.07
64139;BME280;50435;43.700;-79.318;2023-02-19T01:48:55;101065.15;;;-0.34;50.94
64139;BME280;50435;43.700;-79.318;2023-02-19T01:51:24;101061.12;;;-0.78;51.37
64139;BME280;50435;43.700;-79.318;2023-02-19T01:53:54;101063.11;;;-0.63;50.90
64139;BME280;50435;43.700;-79.318;2023-02-19T01:56:24;101062.26;;;-0.55;51.25
64139;BME280;50435;43.700;-79.318;2023-02-19T01:58:53;101061.57;;;-0.57;51.26
64139;BME280;50435;43.700;-79.318;2023-02-19T02:01:21;101066.71;;;-0.45;50.64
64139;BME280;50435;43.700;-79.318;2023-02-19T02:03:48;101064.25;;;-0.66;50.96
64139;BME280;50435;43.700;-79.318;2023-02-19T02:06:20;101063.45;;;-0.20;50.89
64139;BME280;50435;43.700;-79.318;2023-02-19T02:08:50;101060.76;;;-0.56;51.18
64139;BME280;50435;43.700;-79.318;2023-02-19T02:11:20;101060.83;;;-0.40;51.15
64139;BME280;50435;43.700;-79.318;2023-02-19T02:13:49;101055.50;;;-0.58;51.53
64139;BME280;50435;43.700;-79.318;2023-02-19T02:16:22;101057.74;;;-0.50;51.39
64139;BME280;50435;43.700;-79.318;2023-02-19T02:18:58;101057.44;;;-1.09;51.64
64139;BME280;50435;43.700;-79.318;2023-02-19T02:21:41;101064.51;;;-0.91;51.59
64139;BME280;50435;43.700;-79.318;2023-02-19T02:24:48;101064.20;;;-0.77;51.91
64139;BME280;50435;43.700;-79.318;2023-02-19T02:27:32;101052.18;;;-0.60;51.32
64139;BME280;50435;43.700;-79.318;2023-02-19T02:30:12;101049.17;;;-0.83;51.46
64139;BME280;50435;43.700;-79.318;2023-02-19T02:32:47;101056.18;;;-1.18;51.49
64139;BME280;50435;43.700;-79.318;2023-02-19T02:35:21;101055.82;;;-0.37;51.10
64139;BME280;50435;43.700;-79.318;2023-02-19T02:37:50;101054.14;;;-0.99;51.27
64139;BME280;50435;43.700;-79.318;2023-02-19T02:40:21;101054.64;;;-0.38;51.02
64139;BME280;50435;43.700;-79.318;2023-02-19T02:42:49;101052.24;;;-0.69;51.00
64139;BME280;50435;43.700;-79.318;2023-02-19T02:45:26;101047.81;;;-0.56;51.19
64139;BME280;50435;43.700;-79.318;2023-02-19T02:47:56;101044.88;;;-0.66;51.47
64139;BME280;50435;43.700;-79.318;2023-02-19T02:50:28;101042.27;;;-1.23;51.34
64139;BME280;50435;43.700;-79.318;2023-02-19T02:52:59;101035.78;;;-0.65;50.80
64139;BME280;50435;43.700;-79.318;2023-02-19T02:55:32;101035.91;;;-0.91;51.18
64139;BME280;50435;43.700;-79.318;2023-02-19T02:58:02;101033.73;;;-0.79;51.08
64139;BME280;50435;43.700;-79.318;2023-02-19T03:00:30;101035.92;;;-1.20;51.26
64139;BME280;50435;43.700;-79.318;2023-02-19T03:03:00;101033.45;;;-0.96;51.32
64139;BME280;50435;43.700;-79.318;2023-02-19T03:05:28;101035.03;;;-1.01;51.31
64139;BME280;50435;43.700;-79.318;2023-02-19T03:07:58;101042.62;;;-0.88;51.57
64139;BME280;50435;43.700;-79.318;2023-02-19T03:10:31;101033.42;;;-0.85;50.93
64139;BME280;50435;43.700;-79.318;2023-02-19T03:13:02;101031.61;;;-0.90;51.63
64139;BME280;50435;43.700;-79.318;2023-02-19T03:15:35;101030.60;;;-0.93;51.40
64139;BME280;50435;43.700;-79.318;2023-02-19T03:18:07;101030.98;;;-1.45;51.44
64139;BME280;50435;43.700;-79.318;2023-02-19T03:20:39;101026.93;;;-1.10;51.53
64139;BME280;50435;43.700;-79.318;2023-02-19T03:23:08;101027.05;;;-0.92;51.49
64139;BME280;50435;43.700;-79.318;2023-02-19T03:25:38;101026.72;;;-0.89;51.41
64139;BME280;50435;43.700;-79.318;2023-02-19T03:28:09;101023.05;;;-1.07;51.69
64139;BME280;50435;43.700;-79.318;2023-02-19T03:30:40;101026.54;;;-1.05;51.72
64139;BME280;50435;43.700;-79.318;2023-02-19T03:33:12;101020.19;;;-0.98;51.37
64139;BME280;50435;43.700;-79.318;2023-02-19T03:35:44;101022.44;;;-1.24;52.10
64139;BME280;50435;43.700;-79.318;2023-02-19T03:38:17;101021.87;;;-0.85;51.73
64139;BME280;50435;43.700;-79.318;2023-02-19T03:40:53;101019.49;;;-0.98;51.56
64139;BME280;50435;43.700;-79.318;2023-02-19T03:43:30;101021.90;;;-1.19;51.97
64139;BME280;50435;43.700;-79.318;2023-02-19T03:46:07;101017.37;;;-1.11;51.83
64139;BME280;50435;43.700;-79.318;2023-02-19T03:48:39;101016.08;;;-0.92;51.76
64139;BME280;50435;43.700;-79.318;2023-02-19T03:51:23;101016.45;;;-1.12;51.74
64139;BME280;50435;43.700;-79.318;2023-02-19T03:53:57;101013.52;;;-1.43;52.03
64139;BME280;50435;43.700;-79.318;2023-02-19T03:56:32;101014.88;;;-1.31;52.20
64139;BME280;50435;43.700;-79.318;2023-02-19T03:59:07;101008.60;;;-1.04;51.63
64139;BME280;50435;43.700;-79.318;2023-02-19T04:01:40;101012.18;;;-1.24;52.06
64139;BME280;50435;43.700;-79.318;2023-02-19T04:04:15;101004.95;;;-1.10;51.63
64139;BME280;50435;43.700;-79.318;2023-02-19T04:06:48;101002.04;;;-1.31;52.04
64139;BME280;50435;43.700;-79.318;2023-02-19T04:09:16;100998.39;;;-1.32;52.06
64139;BME280;50435;43.700;-79.318;2023-02-19T04:11:46;100996.52;;;-1.34;52.08
64139;BME280;50435;43.700;-79.318;2023-02-19T04:14:18;100993.71;;;-1.29;52.12
64139;BME280;50435;43.700;-79.318;2023-02-19T04:16:51;100992.47;;;-1.26;51.98
64139;BME280;50435;43.700;-79.318;2023-02-19T04:19:21;100991.47;;;-1.32;52.23
64139;BME280;50435;43.700;-79.318;2023-02-19T04:21:53;100991.37;;;-1.40;52.12
64139;BME280;50435;43.700;-79.318;2023-02-19T04:24:24;100987.81;;;-1.30;51.98
64139;BME280;50435;43.700;-79.318;2023-02-19T04:26:53;100989.63;;;-1.29;51.98
64139;BME280;50435;43.700;-79.318;2023-02-19T04:29:21;100984.15;;;-1.29;51.83
64139;BME280;50435;43.700;-79.318;2023-02-19T04:31:48;100981.85;;;-1.33;51.93
64139;BME280;50435;43.700;-79.318;2023-02-19T04:34:15;100981.50;;;-1.19;51.61
64139;BME280;50435;43.700;-79.318;2023-02-19T04:36:43;100983.28;;;-1.23;51.85
64139;BME280;50435;43.700;-79.318;2023-02-19T04:39:10;100981.95;;;-1.30;51.83
64139;BME280;50435;43.700;-79.318;2023-02-19T04:41:38;100983.11;;;-1.18;51.54
64139;BME280;50435;43.700;-79.318;2023-02-19T04:44:06;100984.41;;;-1.25;51.86
64139;BME280;50435;43.700;-79.318;2023-02-19T04:46:33;100974.71;;;-1.33;51.96
64139;BME280;50435;43.700;-79.318;2023-02-19T04:49:01;100966.06;;;-1.32;51.81
64139;BME280;50435;43.700;-79.318;2023-02-19T04:51:28;100966.17;;;-1.31;52.00
64139;BME280;50435;43.700;-79.318;2023-02-19T04:53:56;100968.70;;;-1.37;52.12
64139;BME280;50435;43.700;-79.318;2023-02-19T04:56:24;100965.94;;;-1.24;51.68
64139;BME280;50435;43.700;-79.318;2023-02-19T04:58:51;100963.24;;;-1.22;51.56
64139;BME280;50435;43.700;-79.318;2023-02-19T05:01:18;100959.74;;;-1.41;51.97
64139;BME280;50435;43.700;-79.318;2023-02-19T05:03:46;100954.26;;;-1.37;52.05
64139;BME280;50435;43.700;-79.318;2023-02-19T05:06:13;100955.42;;;-1.06;51.85
64139;BME280;50435;43.700;-79.318;2023-02-19T05:08:41;100951.49;;;-1.26;51.78
64139;BME280;50435;43.700;-79.318;2023-02-19T05:11:10;100949.04;;;-1.55;51.76
64139;BME280;50435;43.700;-79.318;2023-02-19T05:13:39;100945.83;;;-1.19;51.53
64139;BME280;50435;43.700;-79.318;2023-02-19T05:16:09;100945.32;;;-1.29;51.79
64139;BME280;50435;43.700;-79.318;2023-02-19T05:18:36;100947.65;;;-1.38;52.01
64139;BME280;50435;43.700;-79.318;2023-02-19T05:21:04;100949.61;;;-1.47;52.31
64139;BME280;50435;43.700;-79.318;2023-02-19T05:23:31;100950.57;;;-1.45;52.01
64139;BME280;50435;43.700;-79.318;2023-02-19T05:25:59;100948.71;;;-1.33;51.69
64139;BME280;50435;43.700;-79.318;2023-02-19T05:28:30;100950.36;;;-1.47;51.98
64139;BME280;50435;43.700;-79.318;2023-02-19T05:30:57;100947.35;;;-1.47;52.06
64139;BME280;50435;43.700;-79.318;2023-02-19T05:33:25;100947.81;;;-1.60;52.26
64139;BME280;50435;43.700;-79.318;2023-02-19T05:35:54;100950.80;;;-1.27;51.74
64139;BME280;50435;43.700;-79.318;2023-02-19T05:38:22;100951.97;;;-1.49;52.12
64139;BME280;50435;43.700;-79.318;2023-02-19T05:40:50;100951.80;;;-1.43;51.60
64139;BME280;50435;43.700;-79.318;2023-02-19T05:43:17;100955.76;;;-1.62;52.29
64139;BME280;50435;43.700;-79.318;2023-02-19T05:45:45;100960.62;;;-1.29;52.08
64139;BME280;50435;43.700;-79.318;2023-02-19T05:48:12;100961.17;;;-1.33;52.19
64139;BME280;50435;43.700;-79.318;2023-02-19T05:50:39;100954.65;;;-1.45;51.79
64139;BME280;50435;43.700;-79.318;2023-02-19T05:53:08;100949.68;;;-1.57;52.12
64139;BME280;50435;43.700;-79.318;2023-02-19T05:55:35;100950.22;;;-1.58;52.18
64139;BME280;50435;43.700;-79.318;2023-02-19T05:58:04;100952.34;;;-1.43;51.88
64139;BME280;50435;43.700;-79.318;2023-02-19T06:00:31;100943.19;;;-1.59;52.15
64139;BME280;50435;43.700;-79.318;2023-02-19T06:02:59;100941.16;;;-1.86;52.37
64139;BME280;50435;43.700;-79.318;2023-02-19T06:05:27;100945.67;;;-1.65;52.29
64139;BME280;50435;43.700;-79.318;2023-02-19T06:07:54;100944.36;;;-1.32;52.15
64139;BME280;50435;43.700;-79.318;2023-02-19T06:10:22;100948.57;;;-1.65;52.47
64139;BME280;50435;43.700;-79.318;2023-02-19T06:12:52;100948.84;;;-1.65;52.28
64139;BME280;50435;43.700;-79.318;2023-02-19T06:15:20;100956.14;;;-1.43;52.39
64139;BME280;50435;43.700;-79.318;2023-02-19T06:17:47;100953.83;;;-1.66;52.40
64139;BME280;50435;43.700;-79.318;2023-02-19T06:20:15;100948.96;;;-1.51;52.72
64139;BME280;50435;43.700;-79.318;2023-02-19T06:22:42;100956.10;;;-1.74;52.72
64139;BME280;50435;43.700;-79.318;2023-02-19T06:25:09;100956.43;;;-1.23;51.71
64139;BME280;50435;43.700;-79.318;2023-02-19T06:27:37;100964.61;;;-1.34;52.08
64139;BME280;50435;43.700;-79.318;2023-02-19T06:30:06;100964.82;;;-1.07;51.53
64139;BME280;50435;43.700;-79.318;2023-02-19T06:32:34;100961.26;;;-0.85;51.17
64139;BME280;50435;43.700;-79.318;2023-02-19T06:35:02;100955.76;;;-0.65;50.55
64139;BME280;50435;43.700;-79.318;2023-02-19T06:37:30;100946.60;;;-0.58;50.28
64139;BME280;50435;43.700;-79.318;2023-02-19T06:39:58;100945.82;;;-0.50;50.16
64139;BME280;50435;43.700;-79.318;2023-02-19T06:42:25;100936.54;;;-0.57;50.30
64139;BME280;50435;43.700;-79.318;2023-02-19T06:44:52;100937.85;;;-0.47;49.89
64139;BME280;50435;43.700;-79.318;2023-02-19T06:47:19;100941.85;;;-0.40;50.03
64139;BME280;50435;43.700;-79.318;2023-02-19T06:49:47;100945.66;;;-0.64;50.33
64139;BME280;50435;43.700;-79.318;2023-02-19T06:52:14;100940.18;;;-0.52;50.34
64139;BME280;50435;43.700;-79.318;2023-02-19T06:54:42;100945.06;;;-0.37;49.99
64139;BME280;50435;43.700;-79.318;2023-02-19T06:57:09;100948.06;;;-0.57;49.95
64139;BME280;50435;43.700;-79.318;2023-02-19T06:59:37;100948.23;;;-0.48;50.01
64139;BME280;50435;43.700;-79.318;2023-02-19T07:02:05;100945.08;;;-0.51;49.75
64139;BME280;50435;43.700;-79.318;2023-02-19T07:04:32;100946.23;;;-0.09;49.45
64139;BME280;50435;43.700;-79.318;2023-02-19T07:07:00;100945.61;;;-0.26;49.76
64139;BME280;50435;43.700;-79.318;2023-02-19T07:09:27;100949.27;;;-0.28;49.77
64139;BME280;50435;43.700;-79.318;2023-02-19T07:11:55;100950.37;;;-0.42;49.58
64139;BME280;50435;43.700;-79.318;2023-02-19T07:14:23;100947.78;;;-0.31;49.84
64139;BME280;50435;43.700;-79.318;2023-02-19T07:16:50;100941.05;;;-0.18;49.60
64139;BME280;50435;43.700;-79.318;2023-02-19T07:19:18;100946.31;;;-0.38;49.99
64139;BME280;50435;43.700;-79.318;2023-02-19T07:21:45;100944.51;;;-0.21;49.79
64139;BME280;50435;43.700;-79.318;2023-02-19T07:24:13;100943.47;;;-0.17;49.75
64139;BME280;50435;43.700;-79.318;2023-02-19T07:26:41;100937.00;;;-0.13;49.60
64139;BME280;50435;43.700;-79.318;2023-02-19T07:29:08;100937.72;;;-0.19;49.69
64139;BME280;50435;43.700;-79.318;2023-02-19T07:31:36;100933.33;;;-0.34;50.09
64139;BME280;50435;43.700;-79.318;2023-02-19T07:34:04;100928.89;;;-0.05;49.58
64139;BME280;50435;43.700;-79.318;2023-02-19T07:36:33;100921.86;;;-0.19;49.81
64139;BME280;50435;43.700;-79.318;2023-02-19T07:39:00;100922.57;;;-0.31;49.91
64139;BME280;50435;43.700;-79.318;2023-02-19T07:41:27;100921.09;;;-0.27;49.64
64139;BME280;50435;43.700;-79.318;2023-02-19T07:43:55;100909.43;;;-0.17;49.78
64139;BME280;50435;43.700;-79.318;2023-02-19T07:46:22;100905.23;;;-0.61;50.04
64139;BME280;50435;43.700;-79.318;2023-02-19T07:48:50;100900.81;;;-0.24;49.99
64139;BME280;50435;43.700;-79.318;2023-02-19T07:51:18;100888.98;;;-0.24;50.06
64139;BME280;50435;43.700;-79.318;2023-02-19T07:53:46;100881.55;;;-0.22;50.01
64139;BME280;50435;43.700;-79.318;2023-02-19T07:56:14;100866.88;;;-0.24;50.05
64139;BME280;50435;43.700;-79.318;2023-02-19T07:58:43;100860.79;;;-0.31;50.33
64139;BME280;50435;43.700;-79.318;2023-02-19T08:01:13;100860.00;;;-0.25;50.10
64139;BME280;50435;43.700;-79.318;2023-02-19T08:03:41;100853.75;;;-0.32;50.37
64139;BME280;50435;43.700;-79.318;2023-02-19T08:06:10;100862.40;;;-0.22;50.15
64139;BME280;50435;43.700;-79.318;2023-02-19T08:08:39;100859.74;;;-0.18;50.12
64139;BME280;50435;43.700;-79.318;2023-02-19T08:11:08;100857.89;;;-0.23;50.15
64139;BME280;50435;43.700;-79.318;2023-02-19T08:13:36;100857.65;;;-0.38;50.50
64139;BME280;50435;43.700;-79.318;2023-02-19T08:16:12;100850.98;;;-0.28;50.42
64139;BME280;50435;43.700;-79.318;2023-02-19T08:18:40;100840.17;;;-0.08;50.16
64139;BME280;50435;43.700;-79.318;2023-02-19T08:21:07;100832.81;;;-0.10;50.19
64139;BME280;50435;43.700;-79.318;2023-02-19T08:23:34;100829.11;;;-0.21;50.45
64139;BME280;50435;43.700;-79.318;2023-02-19T08:26:03;100822.09;;;-0.47;50.64
64139;BME280;50435;43.700;-79.318;2023-02-19T08:28:31;100817.66;;;-0.43;50.60
64139;BME280;50435;43.700;-79.318;2023-02-19T08:31:00;100818.57;;;-0.20;50.57
64139;BME280;50435;43.700;-79.318;2023-02-19T08:33:28;100817.93;;;-0.34;50.41
64139;BME280;50435;43.700;-79.318;2023-02-19T08:36:00;100814.55;;;-0.35;50.50
64139;BME280;50435;43.700;-79.318;2023-02-19T08:38:27;100808.32;;;-0.46;50.73
64139;BME280;50435;43.700;-79.318;2023-02-19T08:40:54;100803.56;;;-0.28;50.78
64139;BME280;50435;43.700;-79.318;2023-02-19T08:43:21;100797.70;;;-0.20;50.65
64139;BME280;50435;43.700;-79.318;2023-02-19T08:45:52;100794.89;;;-0.17;50.64
64139;BME280;50435;43.700;-79.318;2023-02-19T08:48:19;100798.80;;;-0.15;50.48
64139;BME280;50435;43.700;-79.318;2023-02-19T08:50:53;100795.83;;;-0.05;50.44
64139;BME280;50435;43.700;-79.318;2023-02-19T08:53:21;100794.60;;;-0.14;50.66
64139;BME280;50435;43.700;-79.318;2023-02-19T08:55:49;100798.36;;;-0.13;50.67
64139;BME280;50435;43.700;-79.318;2023-02-19T08:58:17;100810.37;;;-0.08;50.47
64139;BME280;50435;43.700;-79.318;2023-02-19T09:00:44;100808.68;;;-0.61;50.69
64139;BME280;50435;43.700;-79.318;2023-02-19T09:03:11;100809.26;;;-0.03;50.59
64139;BME280;50435;43.700;-79.318;2023-02-19T09:05:39;100802.50;;;-0.14;50.78
64139;BME280;50435;43.700;-79.318;2023-02-19T09:08:07;100804.19;;;0.00;50.52
64139;BME280;50435;43.700;-79.318;2023-02-19T09:10:36;100802.58;;;0.00;50.64
64139;BME280;50435;43.700;-79.318;2023-02-19T09:13:03;100794.93;;;0.01;50.58
64139;BME280;50435;43.700;-79.318;2023-02-19T09:15:31;100791.45;;;-0.01;50.76
64139;BME280;50435;43.700;-79.318;2023-02-19T09:17:58;100785.31;;;0.08;50.49
64139;BME280;50435;43.700;-79.318;2023-02-19T09:20:25;100779.67;;;-0.57;50.70
64139;BME280;50435;43.700;-79.318;2023-02-19T09:22:56;100771.17;;;-0.01;50.55
64139;BME280;50435;43.700;-79.318;2023-02-19T09:25:24;100767.84;;;-0.51;50.67
64139;BME280;50435;43.700;-79.318;2023-02-19T09:27:54;100773.31;;;-0.40;50.52
64139;BME280;50435;43.700;-79.318;2023-02-19T09:30:22;100778.62;;;-0.20;50.97
64139;BME280;50435;43.700;-79.318;2023-02-19T09:32:50;100766.13;;;-0.32;50.86
64139;BME280;50435;43.700;-79.318;2023-02-19T09:35:17;100764.61;;;-0.08;50.72
64139;BME280;50435;43.700;-79.318;2023-02-19T09:37:45;100747.66;;;-0.22;50.71
64139;BME280;50435;43.700;-79.318;2023-02-19T09:40:12;100753.17;;;-0.33;50.88
64139;BME280;50435;43.700;-79.318;2023-02-19T09:42:41;100754.32;;;-0.05;50.85
64139;BME280;50435;43.700;-79.318;2023-02-19T09:45:18;100762.29;;;0.01;50.77
64139;BME280;50435;43.700;-79.318;2023-02-19T09:47:48;100752.75;;;0.03;50.73
64139;BME280;50435;43.700;-79.318;2023-02-19T09:50:19;100742.05;;;0.02;50.55
64139;BME280;50435;43.700;-79.318;2023-02-19T09:52:50;100738.53;;;0.06;50.71
64139;BME280;50435;43.700;-79.318;2023-02-19T09:55:27;100732.88;;;-0.23;50.74
64139;BME280;50435;43.700;-79.318;2023-02-19T09:57:56;100727.44;;;0.14;50.50
64139;BME280;50435;43.700;-79.318;2023-02-19T10:00:26;100719.48;;;-0.14;50.79
64139;BME280;50435;43.700;-79.318;2023-02-19T10:03:02;100711.56;;;-0.33;50.53
64139;BME280;50435;43.700;-79.318;2023-02-19T10:05:31;100706.72;;;0.02;50.75
64139;BME280;50435;43.700;-79.318;2023-02-19T10:08:00;100699.00;;;-0.10;50.59
64139;BME280;50435;43.700;-79.318;2023-02-19T10:10:32;100711.31;;;-0.15;50.73
64139;BME280;50435;43.700;-79.318;2023-02-19T10:13:12;100695.34;;;0.04;50.42
64139;BME280;50435;43.700;-79.318;2023-02-19T10:15:46;100703.37;;;-0.05;50.57
64139;BME280;50435;43.700;-79.318;2023-02-19T10:18:16;100694.12;;;0.04;50.79
64139;BME280;50435;43.700;-79.318;2023-02-19T10:20:45;100682.84;;;0.08;50.66
64139;BME280;50435;43.700;-79.318;2023-02-19T10:23:14;100679.25;;;-0.09;50.59
64139;BME280;50435;43.700;-79.318;2023-02-19T10:25:46;100668.82;;;0.07;50.81
64139;BME280;50435;43.700;-79.318;2023-02-19T10:28:17;100655.01;;;0.24;50.56
64139;BME280;50435;43.700;-79.318;2023-02-19T10:30:50;100657.22;;;0.17;50.49
64139;BME280;50435;43.700;-79.318;2023-02-19T10:33:19;100654.83;;;0.20;50.48
64139;BME280;50435;43.700;-79.318;2023-02-19T10:35:55;100668.53;;;0.16;50.63
64139;BME280;50435;43.700;-79.318;2023-02-19T10:38:26;100681.68;;;0.05;50.91
64139;BME280;50435;43.700;-79.318;2023-02-19T10:41:07;100682.82;;;0.11;50.83
64139;BME280;50435;43.700;-79.318;2023-02-19T10:43:42;100671.83;;;0.19;50.75
64139;BME280;50435;43.700;-79.318;2023-02-19T10:46:16;100669.83;;;0.15;50.76
64139;BME280;50435;43.700;-79.318;2023-02-19T10:48:49;100670.04;;;-0.53;51.10
64139;BME280;50435;43.700;-79.318;2023-02-19T10:51:19;100665.64;;;-0.02;50.60
64139;BME280;50435;43.700;-79.318;2023-02-19T10:53:48;100657.57;;;0.14;50.78
64139;BME280;50435;43.700;-79.318;2023-02-19T10:56:22;100669.65;;;-0.46;50.92
64139;BME280;50435;43.700;-79.318;2023-02-19T10:58:50;100662.32;;;0.18;50.74
64139;BME280;50435;43.700;-79.318;2023-02-19T11:01:19;100659.32;;;0.17;50.77
64139;BME280;50435;43.700;-79.318;2023-02-19T11:03:49;100661.14;;;-0.04;50.59
64139;BME280;50435;43.700;-79.318;2023-02-19T11:06:19;100665.82;;;0.14;50.17
64139;BME280;50435;43.700;-79.318;2023-02-19T11:08:52;100657.73;;;-0.16;50.29
64139;BME280;50435;43.700;-79.318;2023-02-19T11:11:22;100654.84;;;0.21;50.08
64139;BME280;50435;43.700;-79.318;2023-02-19T11:13:53;100653.82;;;-0.13;50.10
64139;BME280;50435;43.700;-79.318;2023-02-19T11:16:22;100650.81;;;0.21;50.05
64139;BME280;50435;43.700;-79.318;2023-02-19T11:18:55;100645.26;;;0.12;49.64
64139;BME280;50435;43.700;-79.318;2023-02-19T11:21:26;100626.12;;;0.04;49.81
64139;BME280;50435;43.700;-79.318;2023-02-19T11:23:54;100636.89;;;0.14;49.59
64139;BME280;50435;43.700;-79.318;2023-02-19T11:26:24;100632.78;;;0.32;49.84
64139;BME280;50435;43.700;-79.318;2023-02-19T11:28:55;100627.70;;;0.07;49.81
64139;BME280;50435;43.700;-79.318;2023-02-19T11:31:25;100611.79;;;0.37;49.80
64139;BME280;50435;43.700;-79.318;2023-02-19T11:33:56;100590.95;;;0.18;49.58
64139;BME280;50435;43.700;-79.318;2023-02-19T11:36:27;100584.43;;;0.45;49.59
64139;BME280;50435;43.700;-79.318;2023-02-19T11:38:56;100570.87;;;0.35;49.78
64139;BME280;50435;43.700;-79.318;2023-02-19T11:41:52;100575.84;;;0.11;49.80
64139;BME280;50435;43.700;-79.318;2023-02-19T11:44:28;100576.92;;;0.21;49.67
64139;BME280;50435;43.700;-79.318;2023-02-19T11:47:13;100581.19;;;-0.07;49.98
64139;BME280;50435;43.700;-79.318;2023-02-19T11:49:53;100580.89;;;0.17;49.70
64139;BME280;50435;43.700;-79.318;2023-02-19T11:52:30;100582.36;;;0.21;49.67
64139;BME280;50435;43.700;-79.318;2023-02-19T11:55:08;100579.33;;;0.28;49.44
64139;BME280;50435;43.700;-79.318;2023-02-19T11:57:42;100574.70;;;0.12;49.75
64139;BME280;50435;43.700;-79.318;2023-02-19T12:00:22;100573.99;;;0.45;49.54
64139;BME280;50435;43.700;-79.318;2023-02-19T12:03:03;100571.29;;;0.20;49.57
64139;BME280;50435;43.700;-79.318;2023-02-19T12:05:48;100559.24;;;0.14;49.70
64139;BME280;50435;43.700;-79.318;2023-02-19T12:08:45;100553.28;;;0.17;49.68
64139;BME280;50435;43.700;-79.318;2023-02-19T12:11:26;100523.75;;;0.75;49.48
64139;BME280;50435;43.700;-79.318;2023-02-19T12:14:07;100506.32;;;0.29;49.42
64139;BME280;50435;43.700;-79.318;2023-02-19T12:16:46;100503.32;;;0.28;49.47
64139;BME280;50435;43.700;-79.318;2023-02-19T12:19:41;100506.94;;;0.32;49.40
64139;BME280;50435;43.700;-79.318;2023-02-19T12:22:23;100541.35;;;0.67;49.24
64139;BME280;50435;43.700;-79.318;2023-02-19T12:25:05;100547.51;;;0.47;49.15
64139;BME280;50435;43.700;-79.318;2023-02-19T12:27:52;100565.27;;;0.48;49.26
64139;BME280;50435;43.700;-79.318;2023-02-19T12:30:33;100564.59;;;0.56;49.03
64139;BME280;50435;43.700;-79.318;2023-02-19T12:33:23;100569.61;;;0.60;48.93
64139;BME280;50435;43.700;-79.318;2023-02-19T12:36:02;100532.97;;;0.62;48.96
64139;BME280;50435;43.700;-79.318;2023-02-19T12:38:38;100488.68;;;0.60;48.99
64139;BME280;50435;43.700;-79.318;2023-02-19T12:41:22;100489.33;;;0.55;49.11
64139;BME280;50435;43.700;-79.318;2023-02-19T12:43:58;100518.56;;;0.46;49.28
64139;BME280;50435;43.700;-79.318;2023-02-19T12:46:31;100503.85;;;0.61;49.01
64139;BME280;50435;43.700;-79.318;2023-02-19T12:49:04;100509.19;;;0.60;49.03
64139;BME280;50435;43.700;-79.318;2023-02-19T12:51:41;100510.49;;;0.59;49.10